sensor_id;sensor_type;location;lat;lon;timestamp;P1;durP1;ratioP1;P2;durP2;ratioP2
36315;SDS011;22343;50.820;2.666;2022-12-01T00:01:35;114.43;;;29.27;;
36315;SDS011;22343;50.820;2.666;2022-12-01T00:04:21;109.00;;;29.40;;
36315;SDS011;22343;50.820;2.666;2022-12-01T00:07:06;83.10;;;27.37;;
36315;SDS011;22343;50.820;2.666;2022-12-01T00:09:52;113.23;;;30.17;;
36315;SDS011;22343;50.820;2.666;2022-12-01T00:12:57;99.60;;;28.17;;
36315;SDS011;22343;50.820;2.666;2022-12-01T00:15:43;135.50;;;32.00;;
36315;SDS011;22343;50.820;2.666;2022-12-01T00:18:28;112.53;;;27.97;;
36315;SDS011;22343;50.820;2.666;2022-12-01T00:21:13;151.70;;;33.70;;
36315;SDS011;22343;50.820;2.666;2022-12-01T00:23:58;165.07;;;33.93;;
36315;SDS011;22343;50.820;2.666;2022-12-01T00:26:44;144.13;;;34.00;;
36315;SDS011;22343;50.820;2.666;2022-12-01T00:29:30;129.73;;;32.50;;
36315;SDS011;22343;50.820;2.666;2022-12-01T00:32:15;90.40;;;30.30;;
36315;SDS011;22343;50.820;2.666;2022-12-01T00:34:59;107.97;;;31.40;;
36315;SDS011;22343;50.820;2.666;2022-12-01T00:37:47;99.53;;;33.30;;
36315;SDS011;22343;50.820;2.666;2022-12-01T00:40:32;76.63;;;33.20;;
36315;SDS011;22343;50.820;2.666;2022-12-01T00:43:17;79.03;;;33.03;;
36315;SDS011;22343;50.820;2.666;2022-12-01T00:46:02;73.33;;;33.60;;
36315;SDS011;22343;50.820;2.666;2022-12-01T00:48:47;78.23;;;35.23;;
36315;SDS011;22343;50.820;2.666;2022-12-01T00:51:33;83.70;;;34.33;;
36315;SDS011;22343;50.820;2.666;2022-12-01T00:54:18;80.07;;;35.33;;
36315;SDS011;22343;50.820;2.666;2022-12-01T00:57:04;85.20;;;36.00;;
36315;SDS011;22343;50.820;2.666;2022-12-01T00:59:50;79.07;;;34.83;;
36315;SDS011;22343;50.820;2.666;2022-12-01T01:02:37;76.13;;;35.37;;
36315;SDS011;22343;50.820;2.666;2022-12-01T01:05:22;86.17;;;35.47;;
36315;SDS011;22343;50.820;2.666;2022-12-01T01:08:07;81.40;;;36.67;;
36315;SDS011;22343;50.820;2.666;2022-12-01T01:10:57;80.87;;;35.50;;
36315;SDS011;22343;50.820;2.666;2022-12-01T01:13:42;74.03;;;34.03;;
36315;SDS011;22343;50.820;2.666;2022-12-01T01:16:28;72.50;;;33.27;;
36315;SDS011;22343;50.820;2.666;2022-12-01T01:19:12;67.17;;;32.33;;
36315;SDS011;22343;50.820;2.666;2022-12-01T01:21:56;61.90;;;30.43;;
36315;SDS011;22343;50.820;2.666;2022-12-01T01:24:41;63.83;;;31.10;;
36315;SDS011;22343;50.820;2.666;2022-12-01T01:27:27;60.10;;;31.50;;
36315;SDS011;22343;50.820;2.666;2022-12-01T01:30:12;64.90;;;31.30;;
36315;SDS011;22343;50.820;2.666;2022-12-01T01:32:57;58.13;;;29.30;;
36315;SDS011;22343;50.820;2.666;2022-12-01T01:35:44;65.17;;;30.90;;
36315;SDS011;22343;50.820;2.666;2022-12-01T01:38:28;60.60;;;30.13;;
36315;SDS011;22343;50.820;2.666;2022-12-01T01:41:15;63.43;;;30.53;;
36315;SDS011;22343;50.820;2.666;2022-12-01T01:44:00;57.60;;;29.57;;
36315;SDS011;22343;50.820;2.666;2022-12-01T01:46:46;51.67;;;28.07;;
36315;SDS011;22343;50.820;2.666;2022-12-01T01:49:30;52.43;;;27.53;;
36315;SDS011;22343;50.820;2.666;2022-12-01T01:52:14;52.87;;;29.03;;
36315;SDS011;22343;50.820;2.666;2022-12-01T01:55:01;54.80;;;28.67;;
36315;SDS011;22343;50.820;2.666;2022-12-01T01:57:46;57.53;;;30.00;;
36315;SDS011;22343;50.820;2.666;2022-12-01T02:00:30;49.40;;;24.30;;
36315;SDS011;22343;50.820;2.666;2022-12-01T02:03:15;52.10;;;27.57;;
36315;SDS011;22343;50.820;2.666;2022-12-01T02:06:00;49.17;;;24.00;;
36315;SDS011;22343;50.820;2.666;2022-12-01T02:08:45;47.40;;;22.47;;
36315;SDS011;22343;50.820;2.666;2022-12-01T02:18:21;56.40;;;26.13;;
36315;SDS011;22343;50.820;2.666;2022-12-01T02:30:37;53.50;;;25.57;;
36315;SDS011;22343;50.820;2.666;2022-12-01T02:33:24;53.43;;;25.37;;
36315;SDS011;22343;50.820;2.666;2022-12-01T02:39:51;50.67;;;26.33;;
36315;SDS011;22343;50.820;2.666;2022-12-01T02:48:54;43.50;;;23.00;;
36315;SDS011;22343;50.820;2.666;2022-12-01T02:51:41;46.87;;;24.30;;
36315;SDS011;22343;50.820;2.666;2022-12-01T02:54:28;45.83;;;24.30;;
36315;SDS011;22343;50.820;2.666;2022-12-01T02:57:14;47.67;;;24.60;;
36315;SDS011;22343;50.820;2.666;2022-12-01T03:00:00;44.17;;;23.90;;
36315;SDS011;22343;50.820;2.666;2022-12-01T03:06:53;37.87;;;21.67;;
36315;SDS011;22343;50.820;2.666;2022-12-01T03:09:40;40.53;;;22.50;;
36315;SDS011;22343;50.820;2.666;2022-12-01T03:13:00;43.10;;;23.57;;
36315;SDS011;22343;50.820;2.666;2022-12-01T03:16:04;43.93;;;22.13;;
36315;SDS011;22343;50.820;2.666;2022-12-01T03:19:00;44.83;;;23.50;;
36315;SDS011;22343;50.820;2.666;2022-12-01T03:25:12;39.13;;;22.37;;
36315;SDS011;22343;50.820;2.666;2022-12-01T03:27:57;42.17;;;23.50;;
36315;SDS011;22343;50.820;2.666;2022-12-01T03:30:44;43.10;;;23.87;;
36315;SDS011;22343;50.820;2.666;2022-12-01T03:33:31;46.10;;;24.43;;
36315;SDS011;22343;50.820;2.666;2022-12-01T03:39:28;45.10;;;22.80;;
36315;SDS011;22343;50.820;2.666;2022-12-01T03:42:19;45.37;;;24.83;;
36315;SDS011;22343;50.820;2.666;2022-12-01T03:45:10;45.77;;;24.27;;
36315;SDS011;22343;50.820;2.666;2022-12-01T03:47:59;49.60;;;25.97;;
36315;SDS011;22343;50.820;2.666;2022-12-01T03:50:51;42.47;;;24.10;;
36315;SDS011;22343;50.820;2.666;2022-12-01T03:53:49;47.97;;;24.50;;
36315;SDS011;22343;50.820;2.666;2022-12-01T03:56:37;39.67;;;20.90;;
36315;SDS011;22343;50.820;2.666;2022-12-01T03:59:30;39.63;;;21.40;;
36315;SDS011;22343;50.820;2.666;2022-12-01T04:02:18;48.00;;;24.07;;
36315;SDS011;22343;50.820;2.666;2022-12-01T04:05:04;44.83;;;23.70;;
36315;SDS011;22343;50.820;2.666;2022-12-01T04:07:50;44.03;;;24.00;;
36315;SDS011;22343;50.820;2.666;2022-12-01T04:10:36;42.47;;;23.20;;
36315;SDS011;22343;50.820;2.666;2022-12-01T04:13:20;43.13;;;23.90;;
36315;SDS011;22343;50.820;2.666;2022-12-01T04:16:09;45.50;;;23.77;;
36315;SDS011;22343;50.820;2.666;2022-12-01T04:18:54;39.97;;;22.10;;
36315;SDS011;22343;50.820;2.666;2022-12-01T04:21:38;41.17;;;24.17;;
36315;SDS011;22343;50.820;2.666;2022-12-01T04:24:24;47.03;;;25.37;;
36315;SDS011;22343;50.820;2.666;2022-12-01T04:27:09;46.87;;;23.63;;
36315;SDS011;22343;50.820;2.666;2022-12-01T04:29:54;45.57;;;24.27;;
36315;SDS011;22343;50.820;2.666;2022-12-01T04:32:40;43.13;;;24.53;;
36315;SDS011;22343;50.820;2.666;2022-12-01T04:35:27;44.13;;;23.73;;
36315;SDS011;22343;50.820;2.666;2022-12-01T04:38:12;44.87;;;23.10;;
36315;SDS011;22343;50.820;2.666;2022-12-01T04:40:57;46.43;;;24.57;;
36315;SDS011;22343;50.820;2.666;2022-12-01T04:43:43;45.73;;;24.10;;
36315;SDS011;22343;50.820;2.666;2022-12-01T04:46:28;44.63;;;23.83;;
36315;SDS011;22343;50.820;2.666;2022-12-01T04:49:14;46.77;;;23.47;;
36315;SDS011;22343;50.820;2.666;2022-12-01T04:51:58;40.80;;;23.53;;
36315;SDS011;22343;50.820;2.666;2022-12-01T04:54:44;43.50;;;23.53;;
36315;SDS011;22343;50.820;2.666;2022-12-01T04:57:28;44.07;;;24.10;;
36315;SDS011;22343;50.820;2.666;2022-12-01T05:00:14;44.20;;;23.80;;
36315;SDS011;22343;50.820;2.666;2022-12-01T05:02:59;41.97;;;22.50;;
36315;SDS011;22343;50.820;2.666;2022-12-01T05:05:45;38.90;;;18.50;;
36315;SDS011;22343;50.820;2.666;2022-12-01T05:08:29;42.67;;;23.20;;
36315;SDS011;22343;50.820;2.666;2022-12-01T05:11:14;44.90;;;23.63;;
36315;SDS011;22343;50.820;2.666;2022-12-01T05:13:59;46.27;;;25.27;;
36315;SDS011;22343;50.820;2.666;2022-12-01T05:16:44;43.40;;;24.03;;
36315;SDS011;22343;50.820;2.666;2022-12-01T05:19:30;42.00;;;22.40;;
36315;SDS011;22343;50.820;2.666;2022-12-01T05:22:34;43.73;;;23.77;;
36315;SDS011;22343;50.820;2.666;2022-12-01T05:25:20;43.47;;;23.23;;
36315;SDS011;22343;50.820;2.666;2022-12-01T05:28:06;45.10;;;24.43;;
36315;SDS011;22343;50.820;2.666;2022-12-01T05:30:52;43.87;;;23.43;;
36315;SDS011;22343;50.820;2.666;2022-12-01T05:33:38;43.03;;;23.73;;
36315;SDS011;22343;50.820;2.666;2022-12-01T05:36:22;51.07;;;26.27;;
36315;SDS011;22343;50.820;2.666;2022-12-01T05:39:07;47.27;;;25.40;;
36315;SDS011;22343;50.820;2.666;2022-12-01T05:41:52;43.67;;;24.03;;
36315;SDS011;22343;50.820;2.666;2022-12-01T05:44:38;44.93;;;24.53;;
36315;SDS011;22343;50.820;2.666;2022-12-01T05:47:22;45.13;;;23.70;;
36315;SDS011;22343;50.820;2.666;2022-12-01T05:50:08;42.30;;;23.27;;
36315;SDS011;22343;50.820;2.666;2022-12-01T05:52:54;41.23;;;23.03;;
36315;SDS011;22343;50.820;2.666;2022-12-01T05:55:40;44.80;;;22.63;;
36315;SDS011;22343;50.820;2.666;2022-12-01T05:58:25;38.53;;;21.00;;
36315;SDS011;22343;50.820;2.666;2022-12-01T06:01:10;43.00;;;22.73;;
36315;SDS011;22343;50.820;2.666;2022-12-01T06:03:55;40.40;;;22.10;;
36315;SDS011;22343;50.820;2.666;2022-12-01T06:06:40;36.20;;;20.33;;
36315;SDS011;22343;50.820;2.666;2022-12-01T06:09:25;39.20;;;20.30;;
36315;SDS011;22343;50.820;2.666;2022-12-01T06:12:11;42.47;;;21.43;;
36315;SDS011;22343;50.820;2.666;2022-12-01T06:14:57;44.30;;;23.37;;
36315;SDS011;22343;50.820;2.666;2022-12-01T06:17:42;42.07;;;22.33;;
36315;SDS011;22343;50.820;2.666;2022-12-01T06:20:28;42.97;;;23.07;;
36315;SDS011;22343;50.820;2.666;2022-12-01T06:23:13;41.60;;;22.37;;
36315;SDS011;22343;50.820;2.666;2022-12-01T06:25:59;45.60;;;24.50;;
36315;SDS011;22343;50.820;2.666;2022-12-01T06:28:45;42.23;;;23.93;;
36315;SDS011;22343;50.820;2.666;2022-12-01T06:31:31;42.00;;;22.77;;
36315;SDS011;22343;50.820;2.666;2022-12-01T06:34:16;47.33;;;24.70;;
36315;SDS011;22343;50.820;2.666;2022-12-01T06:37:00;42.53;;;23.33;;
36315;SDS011;22343;50.820;2.666;2022-12-01T06:39:45;39.30;;;21.70;;
36315;SDS011;22343;50.820;2.666;2022-12-01T06:42:30;42.33;;;23.10;;
36315;SDS011;22343;50.820;2.666;2022-12-01T06:45:15;37.83;;;21.93;;
36315;SDS011;22343;50.820;2.666;2022-12-01T06:47:59;43.67;;;22.87;;
36315;SDS011;22343;50.820;2.666;2022-12-01T06:50:44;39.00;;;22.37;;
36315;SDS011;22343;50.820;2.666;2022-12-01T06:53:28;40.93;;;23.03;;
36315;SDS011;22343;50.820;2.666;2022-12-01T06:56:14;42.70;;;23.00;;
36315;SDS011;22343;50.820;2.666;2022-12-01T06:59:01;44.23;;;22.63;;
36315;SDS011;22343;50.820;2.666;2022-12-01T07:01:46;51.63;;;25.30;;
36315;SDS011;22343;50.820;2.666;2022-12-01T07:04:31;49.03;;;25.60;;
36315;SDS011;22343;50.820;2.666;2022-12-01T07:07:17;59.63;;;28.17;;
36315;SDS011;22343;50.820;2.666;2022-12-01T07:10:02;47.63;;;25.20;;
36315;SDS011;22343;50.820;2.666;2022-12-01T07:12:47;54.83;;;26.43;;
36315;SDS011;22343;50.820;2.666;2022-12-01T07:15:33;64.97;;;30.97;;
36315;SDS011;22343;50.820;2.666;2022-12-01T07:18:17;58.00;;;28.27;;
36315;SDS011;22343;50.820;2.666;2022-12-01T07:21:04;72.67;;;31.93;;
36315;SDS011;22343;50.820;2.666;2022-12-01T07:23:53;106.87;;;42.00;;
36315;SDS011;22343;50.820;2.666;2022-12-01T07:26:37;79.43;;;34.30;;
36315;SDS011;22343;50.820;2.666;2022-12-01T07:29:23;48.13;;;24.43;;
36315;SDS011;22343;50.820;2.666;2022-12-01T07:32:07;55.53;;;26.57;;
36315;SDS011;22343;50.820;2.666;2022-12-01T07:34:51;52.07;;;25.33;;
36315;SDS011;22343;50.820;2.666;2022-12-01T07:37:37;68.97;;;31.07;;
36315;SDS011;22343;50.820;2.666;2022-12-01T07:40:22;58.57;;;28.17;;
36315;SDS011;22343;50.820;2.666;2022-12-01T07:43:08;50.57;;;24.50;;
36315;SDS011;22343;50.820;2.666;2022-12-01T07:45:53;50.00;;;25.70;;
36315;SDS011;22343;50.820;2.666;2022-12-01T07:48:38;46.90;;;25.07;;
36315;SDS011;22343;50.820;2.666;2022-12-01T07:51:24;49.97;;;24.60;;
36315;SDS011;22343;50.820;2.666;2022-12-01T07:54:10;43.33;;;20.23;;
36315;SDS011;22343;50.820;2.666;2022-12-01T07:56:57;45.23;;;23.80;;
36315;SDS011;22343;50.820;2.666;2022-12-01T07:59:41;52.23;;;26.67;;
36315;SDS011;22343;50.820;2.666;2022-12-01T08:02:27;49.77;;;25.80;;
36315;SDS011;22343;50.820;2.666;2022-12-01T08:05:11;45.67;;;23.67;;
36315;SDS011;22343;50.820;2.666;2022-12-01T08:07:55;46.80;;;24.07;;
36315;SDS011;22343;50.820;2.666;2022-12-01T08:10:39;58.77;;;24.83;;
36315;SDS011;22343;50.820;2.666;2022-12-01T08:13:25;71.47;;;25.20;;
36315;SDS011;22343;50.820;2.666;2022-12-01T08:16:10;63.30;;;21.37;;
36315;SDS011;22343;50.820;2.666;2022-12-01T08:18:56;101.87;;;24.03;;
36315;SDS011;22343;50.820;2.666;2022-12-01T08:21:42;136.20;;;26.20;;
36315;SDS011;22343;50.820;2.666;2022-12-01T08:24:28;142.50;;;26.20;;
36315;SDS011;22343;50.820;2.666;2022-12-01T08:27:13;114.20;;;24.73;;
36315;SDS011;22343;50.820;2.666;2022-12-01T08:29:58;83.07;;;22.43;;
36315;SDS011;22343;50.820;2.666;2022-12-01T08:32:45;106.63;;;25.10;;
36315;SDS011;22343;50.820;2.666;2022-12-01T08:35:30;65.67;;;23.57;;
36315;SDS011;22343;50.820;2.666;2022-12-01T08:38:20;54.30;;;23.53;;
36315;SDS011;22343;50.820;2.666;2022-12-01T08:41:05;113.10;;;26.80;;
36315;SDS011;22343;50.820;2.666;2022-12-01T08:43:51;65.60;;;23.57;;
36315;SDS011;22343;50.820;2.666;2022-12-01T08:46:36;93.97;;;26.73;;
36315;SDS011;22343;50.820;2.666;2022-12-01T08:49:20;109.90;;;26.50;;
36315;SDS011;22343;50.820;2.666;2022-12-01T08:52:07;56.83;;;22.70;;
36315;SDS011;22343;50.820;2.666;2022-12-01T08:54:51;96.73;;;27.77;;
36315;SDS011;22343;50.820;2.666;2022-12-01T08:57:36;98.90;;;27.43;;
36315;SDS011;22343;50.820;2.666;2022-12-01T09:00:21;97.50;;;26.50;;
36315;SDS011;22343;50.820;2.666;2022-12-01T09:03:07;94.30;;;23.10;;
36315;SDS011;22343;50.820;2.666;2022-12-01T09:05:52;86.53;;;23.13;;
36315;SDS011;22343;50.820;2.666;2022-12-01T09:08:38;72.63;;;23.20;;
36315;SDS011;22343;50.820;2.666;2022-12-01T09:11:24;71.63;;;22.07;;
36315;SDS011;22343;50.820;2.666;2022-12-01T09:14:11;80.50;;;24.17;;
36315;SDS011;22343;50.820;2.666;2022-12-01T09:16:56;120.67;;;23.97;;
36315;SDS011;22343;50.820;2.666;2022-12-01T09:19:41;80.10;;;22.67;;
36315;SDS011;22343;50.820;2.666;2022-12-01T09:22:27;52.83;;;21.60;;
36315;SDS011;22343;50.820;2.666;2022-12-01T09:25:12;83.70;;;25.80;;
36315;SDS011;22343;50.820;2.666;2022-12-01T09:27:58;87.47;;;24.80;;
36315;SDS011;22343;50.820;2.666;2022-12-01T09:30:44;99.33;;;25.97;;
36315;SDS011;22343;50.820;2.666;2022-12-01T09:33:29;93.83;;;25.10;;
36315;SDS011;22343;50.820;2.666;2022-12-01T09:36:13;93.00;;;25.00;;
36315;SDS011;22343;50.820;2.666;2022-12-01T09:38:59;76.27;;;26.70;;
36315;SDS011;22343;50.820;2.666;2022-12-01T09:41:49;78.27;;;25.67;;
36315;SDS011;22343;50.820;2.666;2022-12-01T09:47:43;95.50;;;25.07;;
36315;SDS011;22343;50.820;2.666;2022-12-01T09:50:29;42.83;;;19.63;;
36315;SDS011;22343;50.820;2.666;2022-12-01T09:53:16;59.80;;;23.40;;
36315;SDS011;22343;50.820;2.666;2022-12-01T09:56:05;50.87;;;23.13;;
36315;SDS011;22343;50.820;2.666;2022-12-01T09:58:54;51.50;;;23.57;;
36315;SDS011;22343;50.820;2.666;2022-12-01T10:01:42;61.07;;;23.40;;
36315;SDS011;22343;50.820;2.666;2022-12-01T10:07:24;53.70;;;20.47;;
36315;SDS011;22343;50.820;2.666;2022-12-01T10:10:17;84.90;;;22.50;;
36315;SDS011;22343;50.820;2.666;2022-12-01T10:16:07;73.27;;;22.83;;
36315;SDS011;22343;50.820;2.666;2022-12-01T10:34:33;103.23;;;25.23;;
36315;SDS011;22343;50.820;2.666;2022-12-01T10:37:23;59.30;;;23.60;;
36315;SDS011;22343;50.820;2.666;2022-12-01T10:40:13;59.80;;;26.07;;
36315;SDS011;22343;50.820;2.666;2022-12-01T10:43:00;52.30;;;24.40;;
36315;SDS011;22343;50.820;2.666;2022-12-01T10:45:45;52.40;;;24.67;;
36315;SDS011;22343;50.820;2.666;2022-12-01T10:48:30;54.10;;;26.00;;
36315;SDS011;22343;50.820;2.666;2022-12-01T10:51:16;48.70;;;23.73;;
36315;SDS011;22343;50.820;2.666;2022-12-01T10:54:07;80.93;;;25.03;;
36315;SDS011;22343;50.820;2.666;2022-12-01T10:56:55;58.33;;;24.40;;
36315;SDS011;22343;50.820;2.666;2022-12-01T11:02:34;91.97;;;24.90;;
36315;SDS011;22343;50.820;2.666;2022-12-01T11:05:26;60.10;;;24.90;;
36315;SDS011;22343;50.820;2.666;2022-12-01T11:08:23;47.90;;;24.33;;
36315;SDS011;22343;50.820;2.666;2022-12-01T11:11:35;56.87;;;25.40;;
36315;SDS011;22343;50.820;2.666;2022-12-01T11:14:22;51.17;;;24.70;;
36315;SDS011;22343;50.820;2.666;2022-12-01T11:20:27;43.47;;;24.07;;
36315;SDS011;22343;50.820;2.666;2022-12-01T11:29:19;52.57;;;27.87;;
36315;SDS011;22343;50.820;2.666;2022-12-01T11:37:58;50.67;;;27.77;;
36315;SDS011;22343;50.820;2.666;2022-12-01T11:43:49;48.10;;;26.63;;
36315;SDS011;22343;50.820;2.666;2022-12-01T11:46:34;48.37;;;27.27;;
36315;SDS011;22343;50.820;2.666;2022-12-01T11:49:23;48.93;;;27.13;;
36315;SDS011;22343;50.820;2.666;2022-12-01T11:58:00;48.27;;;26.53;;
36315;SDS011;22343;50.820;2.666;2022-12-01T12:00:47;49.27;;;28.00;;
36315;SDS011;22343;50.820;2.666;2022-12-01T12:03:38;47.80;;;26.53;;
36315;SDS011;22343;50.820;2.666;2022-12-01T12:06:40;44.03;;;24.90;;
36315;SDS011;22343;50.820;2.666;2022-12-01T12:16:17;37.67;;;20.50;;
36315;SDS011;22343;50.820;2.666;2022-12-01T12:32:02;30.07;;;16.90;;
36315;SDS011;22343;50.820;2.666;2022-12-01T12:35:01;32.73;;;19.40;;
36315;SDS011;22343;50.820;2.666;2022-12-01T12:41:10;34.57;;;19.13;;
36315;SDS011;22343;50.820;2.666;2022-12-01T12:53:58;29.23;;;16.80;;
36315;SDS011;22343;50.820;2.666;2022-12-01T12:56:59;31.00;;;19.73;;
36315;SDS011;22343;50.820;2.666;2022-12-01T12:59:54;32.33;;;17.23;;
36315;SDS011;22343;50.820;2.666;2022-12-01T13:06:13;29.67;;;17.50;;
36315;SDS011;22343;50.820;2.666;2022-12-01T13:09:16;31.30;;;15.53;;
36315;SDS011;22343;50.820;2.666;2022-12-01T13:12:03;22.23;;;12.70;;
36315;SDS011;22343;50.820;2.666;2022-12-01T13:14:54;34.00;;;18.57;;
36315;SDS011;22343;50.820;2.666;2022-12-01T13:17:43;26.27;;;15.97;;
36315;SDS011;22343;50.820;2.666;2022-12-01T13:20:31;29.17;;;15.73;;
36315;SDS011;22343;50.820;2.666;2022-12-01T13:23:17;25.03;;;15.53;;
36315;SDS011;22343;50.820;2.666;2022-12-01T13:26:05;32.57;;;19.30;;
36315;SDS011;22343;50.820;2.666;2022-12-01T13:28:55;33.40;;;21.47;;
36315;SDS011;22343;50.820;2.666;2022-12-01T13:31:42;34.93;;;21.63;;
36315;SDS011;22343;50.820;2.666;2022-12-01T13:37:34;31.60;;;18.60;;
36315;SDS011;22343;50.820;2.666;2022-12-01T13:43:23;30.07;;;17.83;;
36315;SDS011;22343;50.820;2.666;2022-12-01T13:46:20;34.57;;;21.97;;
36315;SDS011;22343;50.820;2.666;2022-12-01T13:52:29;30.70;;;19.07;;
36315;SDS011;22343;50.820;2.666;2022-12-01T14:00:46;27.50;;;15.67;;
36315;SDS011;22343;50.820;2.666;2022-12-01T14:03:36;24.90;;;16.17;;
36315;SDS011;22343;50.820;2.666;2022-12-01T14:09:36;29.07;;;17.40;;
36315;SDS011;22343;50.820;2.666;2022-12-01T14:12:26;33.57;;;19.77;;
36315;SDS011;22343;50.820;2.666;2022-12-01T14:15:27;40.53;;;25.37;;
36315;SDS011;22343;50.820;2.666;2022-12-01T14:21:02;33.43;;;20.33;;
36315;SDS011;22343;50.820;2.666;2022-12-01T14:24:02;34.93;;;21.40;;
36315;SDS011;22343;50.820;2.666;2022-12-01T14:26:48;34.90;;;21.87;;
36315;SDS011;22343;50.820;2.666;2022-12-01T14:29:35;33.20;;;21.43;;
36315;SDS011;22343;50.820;2.666;2022-12-01T14:32:27;33.90;;;20.87;;
36315;SDS011;22343;50.820;2.666;2022-12-01T14:35:11;31.30;;;19.90;;
36315;SDS011;22343;50.820;2.666;2022-12-01T14:37:56;31.80;;;19.03;;
36315;SDS011;22343;50.820;2.666;2022-12-01T14:40:42;31.80;;;18.27;;
36315;SDS011;22343;50.820;2.666;2022-12-01T14:43:28;31.53;;;17.50;;
36315;SDS011;22343;50.820;2.666;2022-12-01T14:46:39;30.43;;;18.43;;
36315;SDS011;22343;50.820;2.666;2022-12-01T14:52:34;31.97;;;19.10;;
36315;SDS011;22343;50.820;2.666;2022-12-01T14:55:28;33.13;;;18.57;;
36315;SDS011;22343;50.820;2.666;2022-12-01T14:58:25;32.07;;;19.03;;
36315;SDS011;22343;50.820;2.666;2022-12-01T15:01:12;29.77;;;18.93;;
36315;SDS011;22343;50.820;2.666;2022-12-01T15:03:58;36.00;;;19.77;;
36315;SDS011;22343;50.820;2.666;2022-12-01T15:06:44;32.93;;;19.07;;
36315;SDS011;22343;50.820;2.666;2022-12-01T15:09:29;31.40;;;19.20;;
36315;SDS011;22343;50.820;2.666;2022-12-01T15:12:22;32.10;;;19.00;;
36315;SDS011;22343;50.820;2.666;2022-12-01T15:15:16;32.97;;;19.50;;
36315;SDS011;22343;50.820;2.666;2022-12-01T15:18:05;32.33;;;19.43;;
36315;SDS011;22343;50.820;2.666;2022-12-01T15:24:26;33.87;;;18.87;;
36315;SDS011;22343;50.820;2.666;2022-12-01T15:27:28;32.17;;;19.37;;
36315;SDS011;22343;50.820;2.666;2022-12-01T15:30:15;31.73;;;19.17;;
36315;SDS011;22343;50.820;2.666;2022-12-01T15:33:00;31.20;;;18.80;;
36315;SDS011;22343;50.820;2.666;2022-12-01T15:35:45;31.67;;;18.23;;
36315;SDS011;22343;50.820;2.666;2022-12-01T15:38:32;30.93;;;18.90;;
36315;SDS011;22343;50.820;2.666;2022-12-01T15:41:20;28.93;;;18.00;;
36315;SDS011;22343;50.820;2.666;2022-12-01T15:44:28;30.73;;;19.17;;
36315;SDS011;22343;50.820;2.666;2022-12-01T15:50:35;32.90;;;18.60;;
36315;SDS011;22343;50.820;2.666;2022-12-01T15:53:25;30.57;;;17.83;;
36315;SDS011;22343;50.820;2.666;2022-12-01T15:56:13;33.70;;;18.83;;
36315;SDS011;22343;50.820;2.666;2022-12-01T15:59:08;30.63;;;17.57;;
36315;SDS011;22343;50.820;2.666;2022-12-01T16:01:57;31.97;;;17.97;;
36315;SDS011;22343;50.820;2.666;2022-12-01T16:04:43;29.50;;;18.33;;
36315;SDS011;22343;50.820;2.666;2022-12-01T16:07:29;33.90;;;19.33;;
36315;SDS011;22343;50.820;2.666;2022-12-01T16:10:23;34.40;;;19.73;;
36315;SDS011;22343;50.820;2.666;2022-12-01T16:19:21;30.97;;;17.93;;
36315;SDS011;22343;50.820;2.666;2022-12-01T16:22:15;31.77;;;18.60;;
36315;SDS011;22343;50.820;2.666;2022-12-01T16:25:02;33.23;;;18.13;;
36315;SDS011;22343;50.820;2.666;2022-12-01T16:27:49;30.43;;;18.03;;
36315;SDS011;22343;50.820;2.666;2022-12-01T16:30:36;31.57;;;17.83;;
36315;SDS011;22343;50.820;2.666;2022-12-01T16:33:22;32.53;;;18.60;;
36315;SDS011;22343;50.820;2.666;2022-12-01T16:36:08;32.27;;;18.20;;
36315;SDS011;22343;50.820;2.666;2022-12-01T16:38:54;32.83;;;18.93;;
36315;SDS011;22343;50.820;2.666;2022-12-01T16:41:39;35.80;;;18.53;;
36315;SDS011;22343;50.820;2.666;2022-12-01T16:44:27;31.30;;;17.67;;
36315;SDS011;22343;50.820;2.666;2022-12-01T16:47:14;34.77;;;18.50;;
36315;SDS011;22343;50.820;2.666;2022-12-01T16:50:03;31.57;;;17.40;;
36315;SDS011;22343;50.820;2.666;2022-12-01T16:52:49;34.87;;;18.13;;
36315;SDS011;22343;50.820;2.666;2022-12-01T16:55:56;34.13;;;18.37;;
36315;SDS011;22343;50.820;2.666;2022-12-01T16:58:40;33.57;;;18.53;;
36315;SDS011;22343;50.820;2.666;2022-12-01T17:01:25;34.60;;;18.07;;
36315;SDS011;22343;50.820;2.666;2022-12-01T17:04:10;32.80;;;17.37;;
36315;SDS011;22343;50.820;2.666;2022-12-01T17:06:55;32.30;;;18.00;;
36315;SDS011;22343;50.820;2.666;2022-12-01T17:09:40;33.13;;;18.60;;
36315;SDS011;22343;50.820;2.666;2022-12-01T17:12:24;33.33;;;18.30;;
36315;SDS011;22343;50.820;2.666;2022-12-01T17:15:10;34.23;;;19.03;;
36315;SDS011;22343;50.820;2.666;2022-12-01T17:17:55;33.77;;;18.87;;
36315;SDS011;22343;50.820;2.666;2022-12-01T17:20:41;35.13;;;18.37;;
36315;SDS011;22343;50.820;2.666;2022-12-01T17:23:26;32.93;;;18.80;;
36315;SDS011;22343;50.820;2.666;2022-12-01T17:26:13;33.80;;;19.47;;
36315;SDS011;22343;50.820;2.666;2022-12-01T17:29:00;35.90;;;18.47;;
36315;SDS011;22343;50.820;2.666;2022-12-01T17:31:46;31.90;;;18.13;;
36315;SDS011;22343;50.820;2.666;2022-12-01T17:34:32;34.73;;;19.20;;
36315;SDS011;22343;50.820;2.666;2022-12-01T17:37:16;33.93;;;19.20;;
36315;SDS011;22343;50.820;2.666;2022-12-01T17:40:03;40.20;;;24.57;;
36315;SDS011;22343;50.820;2.666;2022-12-01T17:42:50;43.40;;;27.10;;
36315;SDS011;22343;50.820;2.666;2022-12-01T17:45:34;43.03;;;27.00;;
36315;SDS011;22343;50.820;2.666;2022-12-01T17:48:25;54.07;;;30.93;;
36315;SDS011;22343;50.820;2.666;2022-12-01T17:51:12;67.63;;;35.60;;
36315;SDS011;22343;50.820;2.666;2022-12-01T17:53:58;71.70;;;38.67;;
36315;SDS011;22343;50.820;2.666;2022-12-01T17:56:43;60.13;;;34.13;;
36315;SDS011;22343;50.820;2.666;2022-12-01T17:59:27;47.83;;;29.73;;
36315;SDS011;22343;50.820;2.666;2022-12-01T18:02:13;44.47;;;26.77;;
36315;SDS011;22343;50.820;2.666;2022-12-01T18:04:57;51.70;;;35.07;;
36315;SDS011;22343;50.820;2.666;2022-12-01T18:07:41;46.97;;;28.60;;
36315;SDS011;22343;50.820;2.666;2022-12-01T18:10:27;43.03;;;28.17;;
36315;SDS011;22343;50.820;2.666;2022-12-01T18:13:13;44.07;;;26.40;;
36315;SDS011;22343;50.820;2.666;2022-12-01T18:15:58;47.57;;;26.67;;
36315;SDS011;22343;50.820;2.666;2022-12-01T18:18:44;51.33;;;31.50;;
36315;SDS011;22343;50.820;2.666;2022-12-01T18:21:29;48.93;;;30.50;;
36315;SDS011;22343;50.820;2.666;2022-12-01T18:24:14;45.77;;;28.83;;
36315;SDS011;22343;50.820;2.666;2022-12-01T18:26:59;47.13;;;28.60;;
36315;SDS011;22343;50.820;2.666;2022-12-01T18:29:44;50.30;;;31.00;;
36315;SDS011;22343;50.820;2.666;2022-12-01T18:32:30;51.43;;;31.90;;
36315;SDS011;22343;50.820;2.666;2022-12-01T18:35:16;49.57;;;30.47;;
36315;SDS011;22343;50.820;2.666;2022-12-01T18:38:02;38.47;;;22.70;;
36315;SDS011;22343;50.820;2.666;2022-12-01T18:40:48;45.57;;;25.47;;
36315;SDS011;22343;50.820;2.666;2022-12-01T18:43:32;131.57;;;79.97;;
36315;SDS011;22343;50.820;2.666;2022-12-01T18:46:18;67.00;;;41.13;;
36315;SDS011;22343;50.820;2.666;2022-12-01T18:49:05;59.23;;;37.07;;
36315;SDS011;22343;50.820;2.666;2022-12-01T18:51:53;50.47;;;30.57;;
36315;SDS011;22343;50.820;2.666;2022-12-01T18:54:38;51.63;;;29.57;;
36315;SDS011;22343;50.820;2.666;2022-12-01T18:57:24;50.60;;;30.73;;
36315;SDS011;22343;50.820;2.666;2022-12-01T19:00:09;51.30;;;32.47;;